createdAt,value
2022-12-24T00:02:24.675Z,10.90
2022-12-24T00:05:12.824Z,13.37
2022-12-24T00:07:59.286Z,13.13
2022-12-24T00:10:45.479Z,13.47
2022-12-24T00:13:31.632Z,12.97
2022-12-24T00:16:17.964Z,12.60
2022-12-24T00:19:04.631Z,13.03
2022-12-24T00:21:52.215Z,12.53
2022-12-24T00:24:38.636Z,10.83
2022-12-24T00:27:24.861Z,12.43
2022-12-24T00:30:11.410Z,13.10
2022-12-24T00:32:57.758Z,12.50
2022-12-24T00:35:43.979Z,12.33
2022-12-24T00:38:31.482Z,11.97
2022-12-24T00:41:29.216Z,8.80
2022-12-24T00:44:16.155Z,9.23
2022-12-24T00:47:05.503Z,8.53
2022-12-24T00:49:56.449Z,8.33
2022-12-24T00:52:42.723Z,8.57
2022-12-24T00:55:30.887Z,10.00
2022-12-24T00:58:17.393Z,8.23
2022-12-24T01:01:04.057Z,8.20
2022-12-24T01:03:51.362Z,8.47
2022-12-24T01:06:36.932Z,9.53
2022-12-24T01:09:23.368Z,9.23
2022-12-24T01:12:11.030Z,9.17
2022-12-24T01:14:57.430Z,7.37
2022-12-24T01:20:31.656Z,9.10
2022-12-24T01:23:18.416Z,7.17
2022-12-24T01:26:05.537Z,8.47
2022-12-24T01:28:52.175Z,8.63
2022-12-24T01:31:39.065Z,9.83
2022-12-24T01:34:25.383Z,9.47
2022-12-24T01:37:13.335Z,8.80
2022-12-24T01:40:13.820Z,8.87
2022-12-24T01:43:17.248Z,7.83
2022-12-24T01:46:05.423Z,6.73
2022-12-24T01:48:54.191Z,10.27
2022-12-24T01:51:43.736Z,10.20
2022-12-24T01:54:32.877Z,11.30
2022-12-24T01:57:21.913Z,12.03
2022-12-24T02:00:09.947Z,11.97
2022-12-24T02:02:57.113Z,11.10
2022-12-24T02:05:47.617Z,11.20
2022-12-24T02:08:41.017Z,10.13
2022-12-24T02:11:28.993Z,7.63
2022-12-24T02:14:15.757Z,9.63
2022-12-24T02:17:05.487Z,9.10
2022-12-24T02:20:09.432Z,8.03
2022-12-24T02:23:05.040Z,8.23
2022-12-24T02:26:09.849Z,8.27
2022-12-24T02:29:12.727Z,8.63
2022-12-24T02:32:02.388Z,8.50
2022-12-24T02:34:51.472Z,9.33
2022-12-24T02:37:39.208Z,7.47
2022-12-24T02:40:28.653Z,6.87
2022-12-24T02:43:17.706Z,6.53
2022-12-24T02:46:06.884Z,6.37
2022-12-24T02:48:54.943Z,6.73
2022-12-24T02:51:41.253Z,6.90
2022-12-24T02:54:27.656Z,6.70
2022-12-24T02:57:18.940Z,7.17
2022-12-24T03:00:06.378Z,5.97
2022-12-24T03:02:59.406Z,8.10
2022-12-24T03:05:49.942Z,8.43
2022-12-24T03:08:42.576Z,7.27
2022-12-24T03:11:28.751Z,6.30
2022-12-24T03:14:15.913Z,6.00
2022-12-24T03:17:03.064Z,7.03
2022-12-24T03:19:49.859Z,7.13
2022-12-24T03:22:37.890Z,8.67
2022-12-24T03:25:25.615Z,6.73
2022-12-24T03:28:13.712Z,5.40
2022-12-24T03:31:02.203Z,5.33
2022-12-24T03:33:48.712Z,6.83
2022-12-24T03:36:34.861Z,7.20
2022-12-24T03:39:22.551Z,7.33
2022-12-24T03:42:09.011Z,8.97
2022-12-24T03:44:55.621Z,8.10
2022-12-24T03:47:41.781Z,7.03
2022-12-24T03:50:28.422Z,6.90
2022-12-24T03:53:14.469Z,6.97
2022-12-24T03:56:02.254Z,8.87
2022-12-24T03:58:49.164Z,8.60
2022-12-24T04:01:35.709Z,7.23
2022-12-24T04:04:21.915Z,5.87
2022-12-24T04:07:08.385Z,7.97
2022-12-24T04:09:54.965Z,6.57
2022-12-24T04:12:42.860Z,8.27
2022-12-24T04:15:29.515Z,9.20
2022-12-24T04:18:16.360Z,9.27
2022-12-24T04:21:03.109Z,8.20
2022-12-24T04:23:49.611Z,7.37
2022-12-24T04:26:36.108Z,7.53
2022-12-24T04:29:23.761Z,7.97
2022-12-24T04:32:11.217Z,7.30
2022-12-24T04:34:58.126Z,7.03
2022-12-24T04:37:44.464Z,6.47
2022-12-24T04:40:30.829Z,6.50
2022-12-24T04:43:17.125Z,6.63
2022-12-24T04:46:08.812Z,7.60
2022-12-24T04:48:55.641Z,14.07
2022-12-24T04:51:42.062Z,8.67
2022-12-24T04:54:28.356Z,6.13
2022-12-24T04:57:14.904Z,5.20
2022-12-24T05:00:01.138Z,6.27
2022-12-24T05:02:49.410Z,6.27
2022-12-24T05:05:35.737Z,6.67
2022-12-24T05:08:22.538Z,4.90
2022-12-24T05:11:08.982Z,4.97
2022-12-24T05:13:55.439Z,3.90
2022-12-24T05:16:41.695Z,4.70
2022-12-24T05:19:29.377Z,4.27
2022-12-24T05:22:33.111Z,3.97
2022-12-24T05:25:37.098Z,4.57
2022-12-24T05:28:23.584Z,3.90
2022-12-24T05:31:09.857Z,4.93
2022-12-24T05:33:57.033Z,3.63
2022-12-24T05:36:45.750Z,5.90
2022-12-24T05:39:32.345Z,4.53
2022-12-24T05:42:18.595Z,4.53
2022-12-24T05:45:05.344Z,6.27
2022-12-24T05:47:51.612Z,7.13
2022-12-24T05:50:39.982Z,7.70
2022-12-24T05:53:27.521Z,9.73
2022-12-24T05:56:14.799Z,8.27
2022-12-24T05:59:01.452Z,9.13
2022-12-24T06:01:48.444Z,11.63
2022-12-24T06:04:34.775Z,10.90
2022-12-24T06:07:21.521Z,9.30
2022-12-24T06:10:10.139Z,11.50
2022-12-24T06:12:57.089Z,9.40
2022-12-24T06:15:43.613Z,8.40
2022-12-24T06:18:30.385Z,9.40
2022-12-24T06:21:17.342Z,8.27
2022-12-24T06:24:03.594Z,8.30
2022-12-24T06:26:51.186Z,7.93
2022-12-24T06:29:37.902Z,8.40
2022-12-24T06:32:24.410Z,6.50
2022-12-24T06:35:10.559Z,7.20
2022-12-24T06:37:56.587Z,6.23
2022-12-24T06:40:43.530Z,4.83
2022-12-24T06:43:31.347Z,5.50
2022-12-24T06:46:18.680Z,6.90
2022-12-24T06:49:05.149Z,5.57
2022-12-24T06:51:51.393Z,4.80
2022-12-24T06:54:37.684Z,9.47
2022-12-24T06:57:23.800Z,7.80
2022-12-24T07:00:12.688Z,10.50
2022-12-24T07:02:59.467Z,9.67
2022-12-24T07:05:46.238Z,11.33
2022-12-24T07:08:33.729Z,8.07
2022-12-24T07:11:20.021Z,8.07
2022-12-24T07:14:06.081Z,9.07
2022-12-24T07:16:58.896Z,10.70
2022-12-24T07:19:45.504Z,11.47
2022-12-24T07:22:32.128Z,8.80
2022-12-24T07:25:18.520Z,10.03
2022-12-24T07:28:04.774Z,10.00
2022-12-24T07:30:51.017Z,10.47
2022-12-24T07:33:38.888Z,9.70
2022-12-24T07:36:25.392Z,8.80
2022-12-24T07:39:11.958Z,10.60
2022-12-24T07:41:58.134Z,10.93
2022-12-24T07:44:44.273Z,14.90
2022-12-24T07:47:30.807Z,12.77
2022-12-24T07:50:18.566Z,17.60
2022-12-24T07:53:05.012Z,12.30
2022-12-24T07:55:51.086Z,13.10
2022-12-24T07:58:37.165Z,14.70
2022-12-24T08:01:23.419Z,15.47
2022-12-24T08:04:10.213Z,14.83
2022-12-24T08:06:57.968Z,12.77
2022-12-24T08:09:46.084Z,14.37
2022-12-24T08:12:32.532Z,15.33
2022-12-24T08:15:18.834Z,17.27
2022-12-24T08:18:05.220Z,14.37
2022-12-24T08:20:51.612Z,15.00
2022-12-24T08:23:39.248Z,16.17
2022-12-24T08:26:25.596Z,15.83
2022-12-24T08:29:12.155Z,13.53
2022-12-24T08:31:58.370Z,15.00
2022-12-24T08:34:45.065Z,13.90
2022-12-24T08:37:31.291Z,12.73
2022-12-24T08:40:18.995Z,12.80
2022-12-24T08:43:05.423Z,13.83
2022-12-24T08:45:51.676Z,15.00
2022-12-24T08:48:38.393Z,21.60
2022-12-24T08:51:24.435Z,19.93
2022-12-24T08:54:10.932Z,17.07
2022-12-24T08:56:58.490Z,15.40
2022-12-24T08:59:44.888Z,15.27
2022-12-24T09:02:31.795Z,15.37
2022-12-24T09:05:18.779Z,13.53
2022-12-24T09:08:05.609Z,15.97
2022-12-24T09:10:52.173Z,20.77
2022-12-24T09:13:39.811Z,15.20
2022-12-24T09:16:26.444Z,17.50
2022-12-24T09:19:13.071Z,15.73
2022-12-24T09:21:59.272Z,17.23
2022-12-24T09:24:45.657Z,21.10
2022-12-24T09:27:31.980Z,16.17
2022-12-24T09:30:19.643Z,15.60
2022-12-24T09:33:06.137Z,15.07
2022-12-24T09:35:52.654Z,15.87
2022-12-24T09:38:40.242Z,16.17
2022-12-24T09:41:32.010Z,14.07
2022-12-24T09:44:24.941Z,15.13
2022-12-24T09:47:17.117Z,12.83
2022-12-24T09:50:04.713Z,10.47
2022-12-24T09:52:51.600Z,11.73
2022-12-24T09:55:41.734Z,11.70
2022-12-24T09:58:32.562Z,13.40
2022-12-24T10:01:19.608Z,15.93
2022-12-24T10:04:11.115Z,29.17
2022-12-24T10:07:00.238Z,35.83
2022-12-24T10:09:50.396Z,26.33
2022-12-24T10:12:49.151Z,21.80
2022-12-24T10:15:38.839Z,18.83
2022-12-24T10:18:28.679Z,17.77
2022-12-24T10:21:17.410Z,26.07
2022-12-24T10:24:08.011Z,32.07
2022-12-24T10:26:57.129Z,30.97
2022-12-24T10:29:44.650Z,27.83
2022-12-24T10:32:32.950Z,13.50
2022-12-24T10:35:21.771Z,11.17
2022-12-24T10:38:10.343Z,10.10
2022-12-24T10:40:57.583Z,9.93
2022-12-24T10:43:45.034Z,9.53
2022-12-24T10:46:34.246Z,9.97
2022-12-24T10:49:21.329Z,10.47
2022-12-24T10:52:11.798Z,12.40
2022-12-24T10:55:12.317Z,22.07
2022-12-24T10:58:01.196Z,26.63
2022-12-24T11:00:51.013Z,24.80
2022-12-24T11:03:38.269Z,21.57
2022-12-24T11:06:24.649Z,22.50
2022-12-24T11:09:14.530Z,21.20
2022-12-24T11:12:08.655Z,21.97
2022-12-24T11:15:01.524Z,29.57
2022-12-24T11:17:54.112Z,25.30
2022-12-24T11:20:40.807Z,24.67
2022-12-24T11:23:27.187Z,33.73
2022-12-24T11:26:13.259Z,30.30
2022-12-24T11:29:18.243Z,26.90
2022-12-24T11:32:12.169Z,37.53
2022-12-24T11:35:06.938Z,37.07
2022-12-24T11:38:10.695Z,35.87
2022-12-24T11:41:08.201Z,33.70
2022-12-24T11:44:01.485Z,27.17
2022-12-24T11:46:52.499Z,51.73
2022-12-24T11:49:38.970Z,33.73
2022-12-24T11:52:26.387Z,31.97
2022-12-24T11:55:19.166Z,27.57
2022-12-24T11:58:07.857Z,33.87
2022-12-24T12:00:58.066Z,22.40
2022-12-24T12:03:48.217Z,23.33
2022-12-24T12:06:38.646Z,26.20
2022-12-24T12:09:27.017Z,24.03
2022-12-24T12:12:14.702Z,21.67
2022-12-24T12:15:02.111Z,18.27
2022-12-24T12:17:50.415Z,20.03
2022-12-24T12:20:41.092Z,17.20
2022-12-24T12:23:30.708Z,22.47
2022-12-24T12:26:21.234Z,89.70
2022-12-24T12:29:14.603Z,54.73
2022-12-24T12:32:03.743Z,15.17
2022-12-24T12:34:56.982Z,16.63
2022-12-24T12:37:46.622Z,19.80
2022-12-24T12:40:55.363Z,17.33
2022-12-24T12:43:57.134Z,18.37
2022-12-24T12:46:49.110Z,18.40
2022-12-24T12:49:42.998Z,17.70
2022-12-24T12:52:37.066Z,18.93
2022-12-24T12:55:29.273Z,21.13
2022-12-24T12:58:18.964Z,32.20
2022-12-24T13:01:09.190Z,25.03
2022-12-24T13:04:14.474Z,27.43
2022-12-24T13:07:16.846Z,27.77
2022-12-24T13:10:10.738Z,28.90
2022-12-24T13:13:20.188Z,28.00
2022-12-24T13:16:19.570Z,26.20
2022-12-24T13:19:15.474Z,26.43
2022-12-24T13:22:02.417Z,28.23
2022-12-24T13:24:52.101Z,25.07
2022-12-24T13:27:39.035Z,29.37
2022-12-24T13:30:36.653Z,30.97
2022-12-24T13:33:37.657Z,31.63
2022-12-24T13:36:26.096Z,30.57
2022-12-24T13:39:19.802Z,38.00
2022-12-24T13:42:05.955Z,32.40
2022-12-24T13:45:12.225Z,38.50
2022-12-24T13:47:59.547Z,29.63
2022-12-24T13:50:47.860Z,25.90
2022-12-24T13:53:40.713Z,30.07
2022-12-24T13:56:28.096Z,24.87
2022-12-24T13:59:24.438Z,23.17
2022-12-24T14:02:19.135Z,22.70
2022-12-24T14:05:08.682Z,29.33
2022-12-24T14:07:56.283Z,20.87
2022-12-24T14:10:45.195Z,18.10
2022-12-24T14:13:51.554Z,18.43
2022-12-24T14:16:50.255Z,14.67
2022-12-24T14:19:42.255Z,16.87
2022-12-24T14:22:30.133Z,18.17
2022-12-24T14:25:18.559Z,21.60
2022-12-24T14:28:07.590Z,22.27
2022-12-24T14:31:01.302Z,27.07
2022-12-24T14:33:47.923Z,27.80
2022-12-24T14:36:34.545Z,26.20
2022-12-24T14:39:23.497Z,14.90
2022-12-24T14:42:18.073Z,16.17
2022-12-24T14:45:10.023Z,19.03
2022-12-24T14:48:00.259Z,21.47
2022-12-24T14:50:56.399Z,25.27
2022-12-24T14:53:51.340Z,25.90
2022-12-24T14:56:37.737Z,29.50
2022-12-24T14:59:24.983Z,42.20
2022-12-24T15:02:32.116Z,45.17
2022-12-24T15:05:19.839Z,46.43
2022-12-24T15:08:10.134Z,42.27
2022-12-24T15:10:59.705Z,28.87
2022-12-24T15:13:49.275Z,31.13
2022-12-24T15:16:37.616Z,38.93
2022-12-24T15:19:26.764Z,51.20
2022-12-24T15:22:18.732Z,47.17
2022-12-24T15:25:05.294Z,33.53
2022-12-24T15:27:51.569Z,31.93
2022-12-24T15:30:38.065Z,40.00
2022-12-24T15:33:24.224Z,30.07
2022-12-24T15:36:12.603Z,28.10
2022-12-24T15:38:59.755Z,37.63
2022-12-24T15:42:00.196Z,50.20
2022-12-24T15:44:50.841Z,55.00
2022-12-24T15:47:38.924Z,62.40
2022-12-24T15:50:28.028Z,41.47
2022-12-24T15:53:18.841Z,23.40
2022-12-24T15:56:09.191Z,25.20
2022-12-24T15:59:11.914Z,27.30
2022-12-24T16:01:58.923Z,26.67
2022-12-24T16:04:45.669Z,23.07
2022-12-24T16:07:51.788Z,26.50
2022-12-24T16:10:41.211Z,23.33
2022-12-24T16:13:30.310Z,30.83
2022-12-24T16:16:17.407Z,26.10
2022-12-24T16:19:05.940Z,20.90
2022-12-24T16:21:53.523Z,21.67
2022-12-24T16:24:40.230Z,25.33
2022-12-24T16:27:28.097Z,29.70
2022-12-24T16:30:14.934Z,28.50
2022-12-24T16:33:01.073Z,20.67
2022-12-24T16:35:48.038Z,24.03
2022-12-24T16:38:54.788Z,24.83
2022-12-24T16:41:55.016Z,24.60
2022-12-24T16:44:43.445Z,25.10
2022-12-24T16:47:35.704Z,19.93
2022-12-24T16:50:25.052Z,19.23
2022-12-24T16:53:17.532Z,23.13
2022-12-24T16:56:04.706Z,16.33
2022-12-24T16:58:50.801Z,15.70
2022-12-24T17:01:38.553Z,13.10
2022-12-24T17:04:25.073Z,11.87
2022-12-24T17:07:12.048Z,9.47
2022-12-24T17:09:58.465Z,11.33
2022-12-24T17:12:44.585Z,19.17
2022-12-24T17:15:30.939Z,10.80
2022-12-24T17:18:18.862Z,11.33
2022-12-24T17:21:06.972Z,10.87
2022-12-24T17:23:53.205Z,12.03
2022-12-24T17:26:39.806Z,12.10
2022-12-24T17:29:26.059Z,13.70
2022-12-24T17:32:12.952Z,11.83
2022-12-24T17:35:02.431Z,9.37
2022-12-24T17:37:48.794Z,6.50
2022-12-24T17:40:35.595Z,9.00
2022-12-24T17:43:22.146Z,6.97
2022-12-24T17:46:09.255Z,6.93
2022-12-24T17:48:58.978Z,15.30
2022-12-24T17:51:46.885Z,19.53
2022-12-24T17:54:33.475Z,12.50
2022-12-24T17:57:20.127Z,8.77
2022-12-24T18:00:07.294Z,10.60
2022-12-24T18:02:53.722Z,16.53
2022-12-24T18:05:40.829Z,17.23
2022-12-24T18:08:29.116Z,12.53
2022-12-24T18:11:15.524Z,9.13
2022-12-24T18:14:02.419Z,18.10
2022-12-24T18:16:49.424Z,13.37
2022-12-24T18:19:35.973Z,17.17
2022-12-24T18:22:22.151Z,13.53
2022-12-24T18:25:10.989Z,9.13
2022-12-24T18:27:57.704Z,11.07
2022-12-24T18:30:43.982Z,9.90
2022-12-24T18:33:30.229Z,9.93
2022-12-24T18:36:17.036Z,8.30
2022-12-24T18:39:03.546Z,10.03
2022-12-24T18:41:51.482Z,6.83
2022-12-24T18:44:38.128Z,8.37
2022-12-24T18:47:24.463Z,8.63
2022-12-24T18:50:11.213Z,13.60
2022-12-24T18:52:57.406Z,24.77
2022-12-24T18:55:43.795Z,12.40
2022-12-24T18:58:31.453Z,18.13
2022-12-24T19:01:19.215Z,24.53
2022-12-24T19:04:05.568Z,18.10
2022-12-24T19:06:53.530Z,49.87
2022-12-24T19:09:40.367Z,32.70
2022-12-24T19:12:26.444Z,24.27
2022-12-24T19:15:15.137Z,17.03
2022-12-24T19:18:01.507Z,39.77
2022-12-24T19:20:47.721Z,27.60
2022-12-24T19:23:34.270Z,16.13
2022-12-24T19:26:21.252Z,23.10
2022-12-24T19:29:07.626Z,12.63
2022-12-24T19:31:55.659Z,9.50
2022-12-24T19:34:42.498Z,12.43
2022-12-24T19:37:28.999Z,36.50
2022-12-24T19:40:15.246Z,17.83
2022-12-24T19:43:01.394Z,11.57
2022-12-24T19:45:47.920Z,27.83
2022-12-24T19:48:35.875Z,35.10
2022-12-24T19:51:22.945Z,51.20
2022-12-24T19:54:16.724Z,45.77
2022-12-24T19:57:05.161Z,56.00
2022-12-24T19:59:51.459Z,37.73
2022-12-24T20:02:37.816Z,35.50
2022-12-24T20:05:25.839Z,48.87
2022-12-24T20:08:12.465Z,38.37
2022-12-24T20:10:58.682Z,39.40
2022-12-24T20:13:44.977Z,45.70
2022-12-24T20:16:31.439Z,32.97
2022-12-24T20:19:18.035Z,50.17
2022-12-24T20:22:05.859Z,39.87
2022-12-24T20:24:52.101Z,37.03
2022-12-24T20:27:38.742Z,37.33
2022-12-24T20:30:25.486Z,26.70
2022-12-24T20:33:11.755Z,15.53
2022-12-24T20:36:02.371Z,15.37
2022-12-24T20:38:50.402Z,13.93
2022-12-24T20:41:37.007Z,13.27
2022-12-24T20:44:27.768Z,14.43
2022-12-24T20:47:15.029Z,15.07
2022-12-24T20:50:01.533Z,12.70
2022-12-24T20:52:48.010Z,12.13
2022-12-24T20:55:36.715Z,19.33
2022-12-24T20:58:23.187Z,11.93
2022-12-24T21:01:10.244Z,11.80
2022-12-24T21:03:57.736Z,8.80
2022-12-24T21:06:44.174Z,9.90
2022-12-24T21:09:30.427Z,7.90
2022-12-24T21:12:35.613Z,8.23
2022-12-24T21:15:22.374Z,7.50
2022-12-24T21:18:11.884Z,7.70
2022-12-24T21:20:58.614Z,7.93
2022-12-24T21:23:44.789Z,6.17
2022-12-24T21:26:32.004Z,5.70
2022-12-24T21:29:19.971Z,5.50
2022-12-24T21:32:06.422Z,5.70
2022-12-24T21:34:53.037Z,5.67
2022-12-24T21:37:39.465Z,5.23
2022-12-24T21:40:25.965Z,4.97
2022-12-24T21:43:12.112Z,5.00
2022-12-24T21:46:00.054Z,3.43
2022-12-24T21:49:04.318Z,2.50
2022-12-24T21:51:50.456Z,2.87
2022-12-24T21:54:36.549Z,1.80
2022-12-24T21:57:40.429Z,2.87
2022-12-24T22:00:30.701Z,2.80
2022-12-24T22:03:18.986Z,1.80
2022-12-24T22:06:05.509Z,2.67
2022-12-24T22:09:11.306Z,3.13
2022-12-24T22:11:57.831Z,1.93
2022-12-24T22:14:44.274Z,3.23
2022-12-24T22:17:30.790Z,2.33
2022-12-24T22:20:18.646Z,2.63
2022-12-24T22:23:05.221Z,3.47
2022-12-24T22:25:51.381Z,3.33
2022-12-24T22:28:37.991Z,2.60
2022-12-24T22:31:25.013Z,2.60
2022-12-24T22:34:11.156Z,2.50
2022-12-24T22:36:58.838Z,2.20
2022-12-24T22:39:45.429Z,2.00
2022-12-24T22:42:32.827Z,2.47
2022-12-24T22:45:22.428Z,1.80
2022-12-24T22:48:09.814Z,1.70
2022-12-24T22:50:56.040Z,2.03
2022-12-24T22:53:44.198Z,2.03
2022-12-24T22:56:34.212Z,2.33
2022-12-24T22:59:23.572Z,2.70
2022-12-24T23:02:10.367Z,2.33
2022-12-24T23:04:57.536Z,2.23
2022-12-24T23:07:44.341Z,1.97
2022-12-24T23:10:32.264Z,2.43
2022-12-24T23:13:35.822Z,2.73
2022-12-24T23:16:22.213Z,2.87
2022-12-24T23:19:08.985Z,2.80
2022-12-24T23:21:55.079Z,2.37
2022-12-24T23:24:41.711Z,3.00
2022-12-24T23:27:29.255Z,2.40
2022-12-24T23:30:16.094Z,3.30
2022-12-24T23:33:02.494Z,3.07
2022-12-24T23:35:48.928Z,3.00
2022-12-24T23:38:35.716Z,2.70
2022-12-24T23:41:22.551Z,3.20
2022-12-24T23:44:10.328Z,3.67
2022-12-24T23:46:56.792Z,4.07
2022-12-24T23:49:43.035Z,2.93
2022-12-24T23:52:29.588Z,3.27
2022-12-24T23:55:15.773Z,2.87
2022-12-24T23:58:02.602Z,2.60
